Terminal Aerodrome Forecast
Issued by NWS Huntsville, AL

Home | Current Version | Previous Version | Text Only | Print | Product List | Glossary On
Versions: 1 2 3 4 5 6 7 8 9 10 11 12 13 14 15 16 17 18 19 20 21 22 23 24
000
FTUS44 KHUN 222340
TAFHSV
TAF
KHSV 222340Z 2300/2324 13008KT P6SM BKN250
     FM230300 13010KT P6SM SCT035 BKN050 OVC250
     FM231000 11012G20KT P6SM VCSH BKN025 OVC050
     FM231500 11012G20KT P6SM RA VCTS BKN015CB OVC025
     FM232200 19012G20KT P6SM VCSH BKN015 OVC025=

USA.gov is the U.S. government's official web portal to all federal, state and local government web resources and services.